Latest Weather Observations for Tewantin

IDQ60801

Issued at 11:35 pm EST Saturday 20 September 2014 (issued every 30 minutes, with the page automatically refreshed every 10 minutes)

About weather observations | Map of weather stations | Latest weather observations for QLD | Other Formats
Station Details ID: 040908 Name: TEWANTIN RSL PARK Lat: -26.39 Lon: 153.04 Height: 6.4 m
Data from the previous 72 hours. | See also: Recent months at Tewantin
Date/Time
EST
Temp
°C
App
Temp
°C
Dew
Point
Rel
Hum
%
Delta-T
°C
Wind Press
QNH
hPa
Press
MSL
hPa
Rain
since 9 am
mm
Dir
 
Spd
km/h
Gust
km/h
Spd
kts
Gust
kts
20/11:30pm 16.9 18.3 16.3 96 0.4 ESE 4 9 2 5 1024.0 1024.0 4.0
20/11:00pm 16.7 17.6 16.5 99 0.1 NE 7 11 4 6 1024.1 1024.1 4.0
20/10:30pm 16.9 18.0 16.7 99 0.1 ESE 6 9 3 5 1023.9 1023.9 3.2
20/10:00pm 17.2 18.3 16.6 96 0.4 S 6 7 3 4 1023.7 1023.7 0.2
20/09:30pm 17.0 17.3 15.9 93 0.6 S 9 13 5 7 1023.8 1023.8 0.2
20/09:00pm 16.9 17.2 16.1 95 0.5 SE 9 13 5 7 1023.7 1023.7 0.2
20/08:30pm 17.0 15.8 16.2 95 0.5 SE 17 26 9 14 1023.3 1023.3 0.0
20/08:00pm 17.3 16.5 15.1 87 1.3 SSE 13 20 7 11 1023.0 1023.0 0.0
20/07:30pm 18.0 17.5 14.9 82 1.8 SSW 11 15 6 8 1022.6 1022.6 0.0
20/07:00pm 18.1 19.0 15.0 82 1.8 SW 4 11 2 6 1022.1 1022.1 0.0
20/06:30pm 17.8 18.6 14.7 82 1.8 ENE 4 9 2 5 1021.2 1021.2 0.0
20/06:00pm 18.1 17.5 15.7 86 1.4 ESE 13 19 7 10 1021.0 1021.0 0.0
20/05:30pm 17.5 16.9 15.7 89 1.1 SE 13 20 7 11 1020.1 1020.1 0.0
20/05:00pm 17.7 16.7 15.7 88 1.2 SSE 15 26 8 14 1019.5 1019.5 0.0
20/04:30pm 19.0 16.9 13.6 71 3.1 SE 17 32 9 17 1019.3 1019.3 0.0
20/04:00pm 20.8 20.2 14.5 67 3.7 ESE 11 15 6 8 1018.6 1018.6 0.0
20/03:30pm 20.6 19.4 12.8 61 4.4 ESE 11 17 6 9 1018.4 1018.4 0.0
20/03:00pm 20.7 19.1 12.7 60 4.5 ESE 13 19 7 10 1018.5 1018.5 0.0
20/02:30pm 20.4 18.8 12.9 62 4.3 SE 13 20 7 11 1018.5 1018.5 0.0
20/02:00pm 19.8 18.4 14.4 71 3.1 SE 15 24 8 13 1018.7 1018.7 0.0
20/01:30pm 20.4 19.3 15.4 73 3.0 SE 15 24 8 13 1018.6 1018.6 0.0
20/01:00pm 20.2 18.9 14.8 71 3.2 S 15 28 8 15 1019.1 1019.1 0.0
20/12:30pm 21.1 19.5 13.8 63 4.2 SE 15 26 8 14 1019.1 1019.1 0.0
20/12:00pm 21.8 19.4 13.7 60 4.7 ESE 19 24 10 13 1019.2 1019.2 0.0
20/11:30am 24.4 24.4 15.3 57 5.5 N 9 17 5 9 1019.5 1019.5 0.0
20/11:00am 23.3 22.7 12.3 50 6.2 N 7 13 4 7 1020.0 1020.0 0.0
20/10:30am 22.8 22.2 12.4 52 5.9 N 7 13 4 7 1020.4 1020.4 0.0
20/10:00am 23.0 21.9 13.2 54 5.6 N 11 17 6 9 1020.7 1020.7 0.0
20/09:30am 22.8 22.0 13.0 54 5.6 NNW 9 17 5 9 1021.0 1021.0 0.0
20/09:00am 22.6 22.4 13.7 57 5.2 NNW 7 13 4 7 1021.1 1021.1 0.0
20/08:30am 21.2 21.2 13.6 62 4.4 NNW 6 11 3 6 1021.1 1021.1 0.0
20/08:00am 19.9 20.0 14.0 69 3.4 WNW 6 7 3 4 1020.9 1020.9 0.0
20/07:30am 17.6 18.0 13.7 78 2.2 NW 4 7 2 4 1020.6 1020.6 0.0
20/07:00am 15.7 16.6 12.8 83 1.6 CALM 0 0 0 0 1020.2 1020.2 0.0
20/06:30am 13.7 14.5 12.4 92 0.7 CALM 0 0 0 0 1019.8 1019.8 0.0
20/06:00am 12.6 13.2 11.8 95 0.4 SSW 0 0 0 0 1019.5 1019.5 0.0
20/05:30am 12.7 13.3 11.8 94 0.5 CALM 0 0 0 0 1019.1 1019.1 0.0
20/05:00am 12.8 13.4 11.9 94 0.5 CALM 0 0 0 0 1018.9 1018.9 0.0
20/04:30am 12.9 13.5 11.8 93 0.6 CALM 0 0 0 0 1018.5 1018.5 0.0
20/04:00am 13.0 13.6 11.9 93 0.6 CALM 0 0 0 0 1018.5 1018.5 0.0
20/03:30am 13.4 14.1 12.3 93 0.6 CALM 0 0 0 0 1018.4 1018.4 0.0
20/03:00am 13.4 14.1 12.3 93 0.6 CALM 0 0 0 0 1018.3 1018.3 0.0
20/02:30am 13.6 14.3 12.3 92 0.7 CALM 0 0 0 0 1018.5 1018.5 0.0
20/02:00am 13.6 14.3 12.2 91 0.8 CALM 0 0 0 0 1018.5 1018.5 0.0
20/01:30am 14.0 14.8 12.7 92 0.7 CALM 0 0 0 0 1018.7 1018.7 0.0
20/01:00am 14.5 15.3 12.7 89 1.0 CALM 0 0 0 0 1018.8 1018.8 0.0
20/12:30am 14.9 15.9 13.3 90 0.9 CALM 0 0 0 0 1019.2 1019.2 0.0
20/12:00am 15.3 16.3 13.3 88 1.1 W 0 0 0 0 1019.5 1019.5 0.0
 
Date/Time
EST
Temp
°C
App
Temp
°C
Dew
Point
Rel
Hum
%
Delta-T
°C
Wind Press
QNH
hPa
Press
MSL
hPa
Rain
since 9 am
mm
Dir
 
Spd
km/h
Gust
km/h
Spd
kts
Gust
kts
19/11:30pm 15.3 16.3 13.1 87 1.2 CALM 0 0 0 0 1019.8 1019.8 0.0
19/11:00pm 15.2 15.8 12.0 81 1.7 CALM 0 0 0 0 1019.7 1019.7 0.0
19/10:30pm 15.7 16.4 12.1 79 2.0 CALM 0 0 0 0 1019.6 1019.6 0.0
19/10:00pm 15.8 16.3 11.6 76 2.3 CALM 0 6 0 3 1019.5 1019.5 0.0
19/09:30pm 16.6 17.1 11.5 72 2.8 CALM 0 0 0 0 1019.6 1019.6 0.0
19/09:00pm 17.2 17.9 12.3 73 2.7 CALM 0 0 0 0 1019.5 1019.5 0.0
19/08:30pm 18.2 18.4 12.0 67 3.4 WNW 2 6 1 3 1019.6 1019.6 0.0
19/08:00pm 19.3 18.6 12.1 63 4.0 NNW 7 11 4 6 1019.5 1019.5 0.0
19/07:30pm 19.7 18.7 12.2 62 4.2 N 9 13 5 7 1019.2 1019.2 0.0
19/07:00pm 19.8 19.5 12.6 63 4.0 N 6 7 3 4 1019.0 1019.0 0.0
19/06:30pm 19.9 19.2 11.9 60 4.4 NNE 7 13 4 7 1018.3 1018.3 0.0
19/06:00pm 20.3 18.6 12.5 61 4.4 NNE 13 17 7 9 1017.7 1017.7 0.0
19/05:30pm 20.6 18.3 13.1 62 4.3 NNE 17 26 9 14 1017.3 1017.3 0.0
19/05:00pm 21.0 18.2 12.7 59 4.7 NNE 19 26 10 14 1016.9 1016.9 0.0
19/04:30pm 21.4 18.9 12.3 56 5.1 NE 17 24 9 13 1016.8 1016.8 0.0
19/04:00pm 21.8 19.5 12.9 57 5.1 NE 17 26 9 14 1016.8 1016.8 0.0
19/03:30pm 22.1 19.6 12.4 54 5.5 NE 17 30 9 16 1016.6 1016.6 0.0
19/03:00pm 22.4 19.9 12.4 53 5.7 NE 17 26 9 14 1016.5 1016.5 0.0
19/02:30pm 22.1 19.3 13.2 57 5.1 NE 20 30 11 16 1016.5 1016.5 0.0
19/02:00pm 22.2 19.7 12.2 53 5.6 NE 17 32 9 17 1016.8 1016.8 0.0
19/01:30pm 22.7 20.3 14.3 59 4.9 NE 20 33 11 18 1017.3 1017.3 0.0
19/01:00pm 22.7 20.6 14.8 61 4.7 NE 19 26 10 14 1017.9 1017.9 0.0
19/12:30pm 22.5 20.6 15.1 63 4.4 NNE 19 28 10 15 1018.5 1018.5 0.0
19/12:00pm 22.5 20.0 13.6 57 5.1 NNE 19 28 10 15 1019.0 1019.0 0.0
19/11:30am 23.0 20.7 12.9 53 5.8 NE 17 22 9 12 1019.5 1019.5 0.0
19/11:00am 22.6 21.2 12.3 52 5.8 NNE 11 20 6 11 1020.1 1020.1 0.0
19/10:30am 22.8 21.0 9.6 43 7.1 N 9 15 5 8 1020.6 1020.6 0.0
19/10:00am 21.9 19.9 10.1 47 6.4 N 11 17 6 9 1020.9 1020.9 0.0
19/09:30am 21.8 20.5 11.2 51 5.9 NNW 9 17 5 9 1021.2 1021.2 0.0
19/09:00am 21.3 20.3 11.1 52 5.6 NNW 7 13 4 7 1021.3 1021.3 0.0
19/08:30am 20.1 20.2 11.6 58 4.7 SW 2 7 1 4 1021.5 1021.5 0.0
19/08:00am 18.1 17.2 10.5 61 4.1 NNW 6 9 3 5 1021.4 1021.4 0.0
19/07:30am 15.7 14.3 9.4 66 3.3 N 7 7 4 4 1021.3 1021.3 0.0
19/07:00am 14.0 13.3 8.6 70 2.7 WNW 2 7 1 4 1021.0 1021.0 0.0
19/06:30am 12.7 12.5 9.2 79 1.8 CALM 0 0 0 0 1020.6 1020.6 0.0
19/06:00am 11.2 10.8 8.4 83 1.4 CALM 0 0 0 0 1020.2 1020.2 0.0
19/05:30am 11.0 10.8 9.1 88 0.9 CALM 0 0 0 0 1020.0 1020.0 0.0
19/05:00am 11.2 11.2 9.9 92 0.7 CALM 0 0 0 0 1019.6 1019.6 0.0
19/04:30am 11.1 11.0 9.4 89 0.9 CALM 0 0 0 0 1019.6 1019.6 0.0
19/04:00am 11.2 11.1 9.5 89 0.9 CALM 0 0 0 0 1019.5 1019.5 0.0
19/03:30am 11.0 10.6 8.2 83 1.4 CALM 0 0 0 0 1019.4 1019.4 0.0
19/03:00am 11.5 11.3 8.9 84 1.3 CALM 0 0 0 0 1019.2 1019.2 0.0
19/02:30am 11.7 11.5 8.9 83 1.4 CALM 0 0 0 0 1019.2 1019.2 0.0
19/02:00am 12.0 12.0 9.7 86 1.2 CALM 0 0 0 0 1019.1 1019.1 0.0
19/01:30am 11.9 11.6 8.7 81 1.6 CALM 0 0 0 0 1019.4 1019.4 0.0
19/01:00am 12.2 12.0 9.2 82 1.5 CALM 0 0 0 0 1019.4 1019.4 0.0
19/12:30am 12.6 12.7 10.1 85 1.3 CALM 0 0 0 0 1019.6 1019.6 0.0
19/12:00am 12.8 12.6 10.3 85 1.3 SSW 2 7 1 4 1019.7 1019.7 0.0
 
Date/Time
EST
Temp
°C
App
Temp
°C
Dew
Point
Rel
Hum
%
Delta-T
°C
Wind Press
QNH
hPa
Press
MSL
hPa
Rain
since 9 am
mm
Dir
 
Spd
km/h
Gust
km/h
Spd
kts
Gust
kts
18/11:30pm 12.7 12.6 9.3 80 1.7 CALM 0 0 0 0 1019.9 1019.9 0.0
18/11:00pm 13.4 13.7 10.8 84 1.4 CALM 0 0 0 0 1020.0 1020.0 0.0
18/10:30pm 13.9 13.7 8.9 72 2.5 CALM 0 0 0 0 1020.0 1020.0 0.0
18/10:00pm 13.7 13.5 9.2 74 2.3 CALM 0 0 0 0 1020.0 1020.0 0.0
18/09:30pm 14.0 13.7 8.8 71 2.6 CALM 0 0 0 0 1019.9 1019.9 0.0
18/09:00pm 14.5 14.3 8.9 69 2.8 CALM 0 6 0 3 1019.8 1019.8 0.0
18/08:30pm 15.3 14.1 9.7 69 2.9 SW 6 7 3 4 1019.5 1019.5 0.0
18/08:00pm 16.0 14.6 9.4 65 3.4 SW 7 9 4 5 1019.2 1019.2 0.0
18/07:30pm 17.0 17.0 9.9 63 3.7 CALM 0 0 0 0 1018.9 1018.9 0.0
18/07:00pm 17.6 17.6 9.8 60 4.1 CALM 0 0 0 0 1018.3 1018.3 0.0
18/06:30pm 18.7 17.6 8.4 51 5.3 N 4 7 2 4 1018.1 1018.1 0.0
18/06:00pm 19.4 17.7 8.4 49 5.7 NNE 7 9 4 5 1017.7 1017.7 0.0
18/05:30pm 20.2 18.3 9.2 49 5.8 NNE 9 17 5 9 1017.4 1017.4 0.0
18/05:00pm 20.7 18.5 8.0 44 6.6 ENE 9 19 5 10 1016.9 1016.9 0.0
18/04:30pm 21.2 18.0 6.7 39 7.4 ENE 13 19 7 10 1016.5 1016.5 0.0
18/04:00pm 21.7 18.4 6.4 37 7.7 ENE 13 19 7 10 1016.1 1016.1 0.0
18/03:30pm 22.0 18.4 5.0 33 8.4 E 13 20 7 11 1015.9 1015.9 0.0
18/03:00pm 22.2 18.3 5.2 33 8.4 E 15 22 8 12 1015.9 1015.9 0.0
18/02:30pm 22.6 19.3 6.4 35 8.3 ENE 13 22 7 12 1015.9 1015.9 0.0
18/02:00pm 22.3 18.2 4.4 31 8.8 ESE 15 22 8 12 1016.1 1016.1 0.0
18/01:30pm 22.6 18.4 5.5 33 8.6 E 17 24 9 13 1016.4 1016.4 0.0
18/01:00pm 22.6 18.5 6.0 34 8.4 ESE 17 24 9 13 1016.7 1016.7 0.0
18/12:30pm 23.5 20.3 2.9 26 9.9 SE 9 15 5 8 1017.2 1017.2 0.0
18/12:00pm 24.6 20.6 2.7 24 10.5 S 13 24 7 13 1017.7 1017.7 0.0
18/11:30am 24.6 20.5 4.4 27 10.1 S 15 26 8 14 1018.1 1018.1 0.0
18/11:00am 24.1 20.2 1.1 22 10.7 SSW 11 22 6 12 1018.6 1018.6 0.0
18/10:30am 23.7 18.9 2.5 25 10.1 S 17 26 9 14 1019.0 1019.0 0.0
18/10:00am 22.4 17.3 0.9 24 9.8 S 17 32 9 17 1019.2 1019.2 0.0
18/09:30am 22.9 17.6 1.8 25 9.9 S 19 32 10 17 1019.5 1019.5 0.0
18/09:00am 22.2 18.3 5.2 33 8.4 S 15 24 8 13 1019.5 1019.5 0.0
18/08:30am 21.9 18.6 6.6 37 7.8 S 13 20 7 11 1019.4 1019.4 0.0
18/08:00am 20.9 18.0 6.4 39 7.3 SSW 11 15 6 8 1019.1 1019.1 0.0
18/07:30am 19.4 18.1 7.5 46 6.1 SW 4 7 2 4 1019.0 1019.0 0.0
18/07:00am 16.4 16.5 10.3 67 3.2 CALM 0 0 0 0 1018.6 1018.6 0.0
18/06:30am 14.0 14.3 11.0 82 1.6 CALM 0 0 0 0 1018.2 1018.2 0.0
18/06:00am 12.9 13.2 10.8 87 1.1 CALM 0 0 0 0 1018.0 1018.0 0.0
18/05:30am 12.9 13.3 11.1 89 0.9 CALM 0 0 0 0 1017.7 1017.7 0.0
18/05:00am 12.9 13.1 10.6 86 1.2 CALM 0 0 0 0 1017.3 1017.3 0.0
18/04:30am 13.6 14.1 11.5 87 1.1 CALM 0 0 0 0 1017.0 1017.0 0.0
18/04:00am 13.8 13.9 11.5 86 1.2 SW 2 6 1 3 1016.6 1016.6 0.0
18/03:30am 13.7 14.6 12.9 95 0.4 CALM 0 0 0 0 1016.2 1016.2 0.0
18/03:00am 13.9 14.8 12.8 93 0.6 CALM 0 0 0 0 1016.0 1016.0 0.0
18/02:30am 14.6 15.7 13.5 93 0.6 CALM 0 0 0 0 1015.7 1015.7 0.0
18/02:00am 15.2 15.4 14.1 93 0.6 WNW 6 9 3 5 1015.7 1015.7 0.0
18/01:30am 16.2 17.3 14.7 91 0.9 W 2 6 1 3 1015.6 1015.6 0.0
18/01:00am 16.8 17.8 15.3 91 0.9 WNW 4 7 2 4 1015.5 1015.5 0.0
18/12:30am 16.6 17.5 15.1 91 0.9 NW 4 7 2 4 1015.5 1015.5 0.0
18/12:00am 16.7 17.6 15.1 90 0.9 WNW 4 9 2 5 1015.3 1015.3 0.0

Other Formats:

Comma delimited format used in spreadsheet applications
http://www.bom.gov.au/fwo/IDQ60801/IDQ60801.94570.axf

JavaScript Object Notation format (JSON) in row-major order
http://www.bom.gov.au/fwo/IDQ60801/IDQ60801.94570.json